sensor_id;sensor_type;location;lat;lon;timestamp;P1;durP1;ratioP1;P2;durP2;ratioP2
61358;SDS011;47228;46.762;23.598;2022-07-25T00:00:15;14.90;;;11.90;;
61358;SDS011;47228;46.762;23.598;2022-07-25T00:03:02;14.20;;;11.60;;
61358;SDS011;47228;46.762;23.598;2022-07-25T00:05:30;15.20;;;11.70;;
61358;SDS011;47228;46.762;23.598;2022-07-25T00:08:04;17.20;;;12.40;;
61358;SDS011;47228;46.762;23.598;2022-07-25T00:10:32;15.00;;;12.00;;
61358;SDS011;47228;46.762;23.598;2022-07-25T00:13:00;14.50;;;12.10;;
61358;SDS011;47228;46.762;23.598;2022-07-25T00:15:28;16.40;;;11.80;;
61358;SDS011;47228;46.762;23.598;2022-07-25T00:17:57;16.50;;;11.00;;
61358;SDS011;47228;46.762;23.598;2022-07-25T00:20:25;14.50;;;11.20;;
61358;SDS011;47228;46.762;23.598;2022-07-25T00:22:53;14.20;;;11.60;;
61358;SDS011;47228;46.762;23.598;2022-07-25T00:25:21;15.50;;;11.70;;
61358;SDS011;47228;46.762;23.598;2022-07-25T00:27:49;15.60;;;11.90;;
61358;SDS011;47228;46.762;23.598;2022-07-25T00:30:17;15.30;;;11.90;;
61358;SDS011;47228;46.762;23.598;2022-07-25T00:32:45;16.30;;;12.60;;
61358;SDS011;47228;46.762;23.598;2022-07-25T00:35:13;14.00;;;11.80;;
61358;SDS011;47228;46.762;23.598;2022-07-25T00:37:41;15.90;;;12.40;;
61358;SDS011;47228;46.762;23.598;2022-07-25T00:40:09;15.70;;;11.40;;
61358;SDS011;47228;46.762;23.598;2022-07-25T00:42:38;16.90;;;13.00;;
61358;SDS011;47228;46.762;23.598;2022-07-25T00:45:06;14.80;;;12.20;;
61358;SDS011;47228;46.762;23.598;2022-07-25T00:47:35;14.40;;;11.90;;
61358;SDS011;47228;46.762;23.598;2022-07-25T00:50:03;15.60;;;12.30;;
61358;SDS011;47228;46.762;23.598;2022-07-25T00:52:31;16.90;;;12.40;;
61358;SDS011;47228;46.762;23.598;2022-07-25T00:55:00;14.30;;;12.00;;
61358;SDS011;47228;46.762;23.598;2022-07-25T00:57:29;15.10;;;11.60;;
61358;SDS011;47228;46.762;23.598;2022-07-25T00:59:57;17.40;;;12.40;;
61358;SDS011;47228;46.762;23.598;2022-07-25T01:02:25;16.00;;;12.20;;
61358;SDS011;47228;46.762;23.598;2022-07-25T01:04:53;14.10;;;11.50;;
61358;SDS011;47228;46.762;23.598;2022-07-25T01:07:21;17.60;;;12.00;;
61358;SDS011;47228;46.762;23.598;2022-07-25T01:09:50;16.10;;;11.90;;
61358;SDS011;47228;46.762;23.598;2022-07-25T01:12:18;16.50;;;11.70;;
61358;SDS011;47228;46.762;23.598;2022-07-25T01:14:46;19.40;;;12.80;;
61358;SDS011;47228;46.762;23.598;2022-07-25T01:17:15;14.60;;;11.90;;
61358;SDS011;47228;46.762;23.598;2022-07-25T01:19:43;15.40;;;12.00;;
61358;SDS011;47228;46.762;23.598;2022-07-25T01:22:12;17.10;;;12.20;;
61358;SDS011;47228;46.762;23.598;2022-07-25T01:24:40;16.50;;;13.10;;
61358;SDS011;47228;46.762;23.598;2022-07-25T01:27:09;15.30;;;12.30;;
61358;SDS011;47228;46.762;23.598;2022-07-25T01:29:44;14.90;;;11.80;;
61358;SDS011;47228;46.762;23.598;2022-07-25T01:32:12;15.50;;;12.10;;
61358;SDS011;47228;46.762;23.598;2022-07-25T01:34:40;16.40;;;12.30;;
61358;SDS011;47228;46.762;23.598;2022-07-25T01:37:08;16.80;;;12.20;;
61358;SDS011;47228;46.762;23.598;2022-07-25T01:39:36;19.30;;;12.50;;
61358;SDS011;47228;46.762;23.598;2022-07-25T01:42:05;16.50;;;11.50;;
61358;SDS011;47228;46.762;23.598;2022-07-25T01:44:33;16.50;;;11.90;;
61358;SDS011;47228;46.762;23.598;2022-07-25T01:47:01;14.10;;;11.50;;
61358;SDS011;47228;46.762;23.598;2022-07-25T01:49:29;17.10;;;11.50;;
61358;SDS011;47228;46.762;23.598;2022-07-25T01:51:57;17.60;;;12.10;;
61358;SDS011;47228;46.762;23.598;2022-07-25T01:54:25;14.50;;;11.10;;
61358;SDS011;47228;46.762;23.598;2022-07-25T01:56:54;16.60;;;11.70;;
61358;SDS011;47228;46.762;23.598;2022-07-25T01:59:22;14.40;;;10.90;;
61358;SDS011;47228;46.762;23.598;2022-07-25T02:01:50;16.10;;;11.20;;
61358;SDS011;47228;46.762;23.598;2022-07-25T02:04:19;16.80;;;11.40;;
61358;SDS011;47228;46.762;23.598;2022-07-25T02:06:47;15.00;;;11.10;;
61358;SDS011;47228;46.762;23.598;2022-07-25T02:09:16;13.60;;;11.10;;
61358;SDS011;47228;46.762;23.598;2022-07-25T02:11:44;14.50;;;11.60;;
61358;SDS011;47228;46.762;23.598;2022-07-25T02:14:13;14.40;;;11.70;;
61358;SDS011;47228;46.762;23.598;2022-07-25T02:16:41;15.60;;;11.70;;
61358;SDS011;47228;46.762;23.598;2022-07-25T02:19:09;14.70;;;11.40;;
61358;SDS011;47228;46.762;23.598;2022-07-25T02:21:37;14.20;;;11.30;;
61358;SDS011;47228;46.762;23.598;2022-07-25T02:24:05;14.90;;;12.20;;
61358;SDS011;47228;46.762;23.598;2022-07-25T02:26:35;14.30;;;11.80;;
61358;SDS011;47228;46.762;23.598;2022-07-25T02:29:03;15.50;;;11.40;;
61358;SDS011;47228;46.762;23.598;2022-07-25T02:31:31;15.40;;;11.30;;
61358;SDS011;47228;46.762;23.598;2022-07-25T02:33:59;12.30;;;10.40;;
61358;SDS011;47228;46.762;23.598;2022-07-25T02:36:27;15.00;;;11.80;;
61358;SDS011;47228;46.762;23.598;2022-07-25T02:38:55;15.80;;;12.30;;
61358;SDS011;47228;46.762;23.598;2022-07-25T02:41:24;16.50;;;12.90;;
61358;SDS011;47228;46.762;23.598;2022-07-25T02:43:52;17.50;;;12.40;;
61358;SDS011;47228;46.762;23.598;2022-07-25T02:46:20;18.30;;;12.30;;
61358;SDS011;47228;46.762;23.598;2022-07-25T02:48:48;15.60;;;12.50;;
61358;SDS011;47228;46.762;23.598;2022-07-25T02:51:16;15.90;;;12.00;;
61358;SDS011;47228;46.762;23.598;2022-07-25T02:53:45;16.60;;;13.00;;
61358;SDS011;47228;46.762;23.598;2022-07-25T02:56:25;15.70;;;11.90;;
61358;SDS011;47228;46.762;23.598;2022-07-25T02:58:56;19.00;;;12.50;;
61358;SDS011;47228;46.762;23.598;2022-07-25T03:01:25;17.40;;;12.70;;
61358;SDS011;47228;46.762;23.598;2022-07-25T03:03:53;17.90;;;12.40;;
61358;SDS011;47228;46.762;23.598;2022-07-25T03:06:22;16.50;;;13.00;;
61358;SDS011;47228;46.762;23.598;2022-07-25T03:08:50;17.90;;;13.20;;
61358;SDS011;47228;46.762;23.598;2022-07-25T03:11:19;16.70;;;12.30;;
61358;SDS011;47228;46.762;23.598;2022-07-25T03:13:47;16.30;;;12.90;;
61358;SDS011;47228;46.762;23.598;2022-07-25T03:16:15;17.90;;;12.20;;
61358;SDS011;47228;46.762;23.598;2022-07-25T03:18:43;17.10;;;12.30;;
61358;SDS011;47228;46.762;23.598;2022-07-25T03:21:11;18.20;;;12.60;;
61358;SDS011;47228;46.762;23.598;2022-07-25T03:23:39;16.00;;;12.20;;
61358;SDS011;47228;46.762;23.598;2022-07-25T03:26:07;17.40;;;11.80;;
61358;SDS011;47228;46.762;23.598;2022-07-25T03:28:36;16.20;;;12.30;;
61358;SDS011;47228;46.762;23.598;2022-07-25T03:31:04;16.70;;;13.10;;
61358;SDS011;47228;46.762;23.598;2022-07-25T03:33:32;19.20;;;12.90;;
61358;SDS011;47228;46.762;23.598;2022-07-25T03:36:00;16.30;;;12.20;;
61358;SDS011;47228;46.762;23.598;2022-07-25T03:38:28;17.20;;;13.20;;
61358;SDS011;47228;46.762;23.598;2022-07-25T03:40:56;16.20;;;12.10;;
61358;SDS011;47228;46.762;23.598;2022-07-25T03:43:24;20.20;;;12.80;;
61358;SDS011;47228;46.762;23.598;2022-07-25T03:45:52;16.60;;;13.00;;
61358;SDS011;47228;46.762;23.598;2022-07-25T03:48:20;16.30;;;11.90;;
61358;SDS011;47228;46.762;23.598;2022-07-25T03:50:49;16.50;;;12.40;;
61358;SDS011;47228;46.762;23.598;2022-07-25T03:53:17;16.60;;;11.90;;
61358;SDS011;47228;46.762;23.598;2022-07-25T03:55:45;16.80;;;12.30;;
61358;SDS011;47228;46.762;23.598;2022-07-25T03:58:13;15.50;;;11.00;;
61358;SDS011;47228;46.762;23.598;2022-07-25T04:00:41;16.20;;;12.00;;
61358;SDS011;47228;46.762;23.598;2022-07-25T04:03:10;14.70;;;12.50;;
61358;SDS011;47228;46.762;23.598;2022-07-25T04:05:38;15.90;;;12.80;;
61358;SDS011;47228;46.762;23.598;2022-07-25T04:08:13;17.00;;;13.50;;
61358;SDS011;47228;46.762;23.598;2022-07-25T04:10:41;19.00;;;13.40;;
61358;SDS011;47228;46.762;23.598;2022-07-25T04:13:09;18.70;;;14.00;;
61358;SDS011;47228;46.762;23.598;2022-07-25T04:15:37;18.20;;;14.00;;
61358;SDS011;47228;46.762;23.598;2022-07-25T04:18:05;19.30;;;14.40;;
61358;SDS011;47228;46.762;23.598;2022-07-25T04:20:36;17.20;;;13.00;;
61358;SDS011;47228;46.762;23.598;2022-07-25T04:23:04;21.00;;;13.90;;
61358;SDS011;47228;46.762;23.598;2022-07-25T04:25:33;21.10;;;13.30;;
61358;SDS011;47228;46.762;23.598;2022-07-25T04:28:01;19.20;;;12.90;;
61358;SDS011;47228;46.762;23.598;2022-07-25T04:30:29;19.30;;;13.70;;
61358;SDS011;47228;46.762;23.598;2022-07-25T04:32:57;20.70;;;13.10;;
61358;SDS011;47228;46.762;23.598;2022-07-25T04:35:25;20.00;;;12.50;;
61358;SDS011;47228;46.762;23.598;2022-07-25T04:37:53;17.60;;;12.00;;
61358;SDS011;47228;46.762;23.598;2022-07-25T04:40:21;16.60;;;12.20;;
61358;SDS011;47228;46.762;23.598;2022-07-25T04:42:49;19.90;;;11.80;;
61358;SDS011;47228;46.762;23.598;2022-07-25T04:45:17;17.10;;;11.90;;
61358;SDS011;47228;46.762;23.598;2022-07-25T04:47:46;20.30;;;12.80;;
61358;SDS011;47228;46.762;23.598;2022-07-25T04:50:14;17.80;;;11.80;;
61358;SDS011;47228;46.762;23.598;2022-07-25T04:52:46;15.90;;;11.50;;
61358;SDS011;47228;46.762;23.598;2022-07-25T04:55:14;14.00;;;10.90;;
61358;SDS011;47228;46.762;23.598;2022-07-25T04:57:42;16.30;;;11.70;;
61358;SDS011;47228;46.762;23.598;2022-07-25T05:00:10;16.30;;;11.00;;
61358;SDS011;47228;46.762;23.598;2022-07-25T05:02:39;15.60;;;11.20;;
61358;SDS011;47228;46.762;23.598;2022-07-25T05:05:08;16.70;;;11.40;;
61358;SDS011;47228;46.762;23.598;2022-07-25T05:07:49;17.40;;;11.50;;
61358;SDS011;47228;46.762;23.598;2022-07-25T05:10:22;13.60;;;11.10;;
61358;SDS011;47228;46.762;23.598;2022-07-25T05:12:51;18.50;;;12.30;;
61358;SDS011;47228;46.762;23.598;2022-07-25T05:15:19;17.80;;;11.30;;
61358;SDS011;47228;46.762;23.598;2022-07-25T05:17:48;14.70;;;11.50;;
61358;SDS011;47228;46.762;23.598;2022-07-25T05:20:16;16.10;;;11.80;;
61358;SDS011;47228;46.762;23.598;2022-07-25T05:22:44;15.70;;;11.20;;
61358;SDS011;47228;46.762;23.598;2022-07-25T05:25:13;19.50;;;12.00;;
61358;SDS011;47228;46.762;23.598;2022-07-25T05:27:42;17.70;;;11.60;;
61358;SDS011;47228;46.762;23.598;2022-07-25T05:30:10;17.80;;;11.70;;
61358;SDS011;47228;46.762;23.598;2022-07-25T05:32:39;13.90;;;11.00;;
61358;SDS011;47228;46.762;23.598;2022-07-25T05:35:08;18.10;;;11.20;;
61358;SDS011;47228;46.762;23.598;2022-07-25T05:37:37;14.70;;;11.10;;
61358;SDS011;47228;46.762;23.598;2022-07-25T05:40:05;19.60;;;11.00;;
61358;SDS011;47228;46.762;23.598;2022-07-25T05:42:34;19.60;;;10.90;;
61358;SDS011;47228;46.762;23.598;2022-07-25T05:45:03;15.80;;;10.30;;
61358;SDS011;47228;46.762;23.598;2022-07-25T05:47:31;14.90;;;10.30;;
61358;SDS011;47228;46.762;23.598;2022-07-25T05:50:00;16.00;;;10.60;;
61358;SDS011;47228;46.762;23.598;2022-07-25T05:52:28;16.80;;;10.60;;
61358;SDS011;47228;46.762;23.598;2022-07-25T05:54:57;14.00;;;10.60;;
61358;SDS011;47228;46.762;23.598;2022-07-25T05:57:25;15.10;;;10.70;;
61358;SDS011;47228;46.762;23.598;2022-07-25T05:59:53;15.40;;;10.50;;
61358;SDS011;47228;46.762;23.598;2022-07-25T06:02:21;14.90;;;10.70;;
61358;SDS011;47228;46.762;23.598;2022-07-25T06:04:49;21.10;;;11.20;;
61358;SDS011;47228;46.762;23.598;2022-07-25T06:07:17;16.20;;;10.40;;
61358;SDS011;47228;46.762;23.598;2022-07-25T06:09:45;13.50;;;10.10;;
61358;SDS011;47228;46.762;23.598;2022-07-25T06:12:13;15.10;;;10.90;;
61358;SDS011;47228;46.762;23.598;2022-07-25T06:14:42;12.20;;;10.10;;
61358;SDS011;47228;46.762;23.598;2022-07-25T06:17:10;19.20;;;10.10;;
61358;SDS011;47228;46.762;23.598;2022-07-25T06:19:38;17.70;;;9.90;;
61358;SDS011;47228;46.762;23.598;2022-07-25T06:22:07;18.20;;;10.60;;
61358;SDS011;47228;46.762;23.598;2022-07-25T06:24:36;17.60;;;9.90;;
61358;SDS011;47228;46.762;23.598;2022-07-25T06:27:05;17.70;;;10.30;;
61358;SDS011;47228;46.762;23.598;2022-07-25T06:29:34;15.40;;;10.50;;
61358;SDS011;47228;46.762;23.598;2022-07-25T06:32:04;14.40;;;10.00;;
61358;SDS011;47228;46.762;23.598;2022-07-25T06:34:32;18.90;;;10.20;;
61358;SDS011;47228;46.762;23.598;2022-07-25T06:37:00;14.80;;;10.00;;
61358;SDS011;47228;46.762;23.598;2022-07-25T06:39:28;16.90;;;9.80;;
61358;SDS011;47228;46.762;23.598;2022-07-25T06:41:56;13.40;;;9.90;;
61358;SDS011;47228;46.762;23.598;2022-07-25T06:44:31;15.20;;;10.30;;
61358;SDS011;47228;46.762;23.598;2022-07-25T06:47:00;15.50;;;10.40;;
61358;SDS011;47228;46.762;23.598;2022-07-25T06:49:29;14.00;;;9.80;;
61358;SDS011;47228;46.762;23.598;2022-07-25T06:51:58;18.00;;;10.60;;
61358;SDS011;47228;46.762;23.598;2022-07-25T06:54:26;14.80;;;9.80;;
61358;SDS011;47228;46.762;23.598;2022-07-25T06:56:54;16.50;;;10.50;;
61358;SDS011;47228;46.762;23.598;2022-07-25T06:59:22;13.70;;;10.90;;
61358;SDS011;47228;46.762;23.598;2022-07-25T07:01:50;13.90;;;9.60;;
61358;SDS011;47228;46.762;23.598;2022-07-25T07:04:18;13.60;;;9.80;;
61358;SDS011;47228;46.762;23.598;2022-07-25T07:06:46;15.00;;;10.20;;
61358;SDS011;47228;46.762;23.598;2022-07-25T07:09:14;15.90;;;10.00;;
61358;SDS011;47228;46.762;23.598;2022-07-25T07:11:43;17.90;;;10.40;;
61358;SDS011;47228;46.762;23.598;2022-07-25T07:14:11;12.70;;;10.30;;
61358;SDS011;47228;46.762;23.598;2022-07-25T07:16:39;14.20;;;10.10;;
61358;SDS011;47228;46.762;23.598;2022-07-25T07:19:08;15.20;;;9.60;;
61358;SDS011;47228;46.762;23.598;2022-07-25T07:21:41;14.40;;;10.10;;
61358;SDS011;47228;46.762;23.598;2022-07-25T07:24:10;15.70;;;10.60;;
61358;SDS011;47228;46.762;23.598;2022-07-25T07:26:51;13.00;;;10.00;;
61358;SDS011;47228;46.762;23.598;2022-07-25T07:29:20;12.60;;;9.30;;
61358;SDS011;47228;46.762;23.598;2022-07-25T07:31:48;17.90;;;10.40;;
61358;SDS011;47228;46.762;23.598;2022-07-25T07:34:17;14.80;;;9.70;;
61358;SDS011;47228;46.762;23.598;2022-07-25T07:36:45;13.40;;;10.70;;
61358;SDS011;47228;46.762;23.598;2022-07-25T07:39:13;15.70;;;9.90;;
61358;SDS011;47228;46.762;23.598;2022-07-25T07:41:43;15.30;;;10.40;;
61358;SDS011;47228;46.762;23.598;2022-07-25T07:44:11;13.60;;;9.90;;
61358;SDS011;47228;46.762;23.598;2022-07-25T07:46:39;12.10;;;9.00;;
61358;SDS011;47228;46.762;23.598;2022-07-25T07:49:08;13.30;;;9.50;;
61358;SDS011;47228;46.762;23.598;2022-07-25T07:51:37;12.80;;;9.40;;
61358;SDS011;47228;46.762;23.598;2022-07-25T07:54:05;17.40;;;10.00;;
61358;SDS011;47228;46.762;23.598;2022-07-25T07:56:52;14.50;;;9.50;;
61358;SDS011;47228;46.762;23.598;2022-07-25T07:59:20;13.80;;;9.60;;
61358;SDS011;47228;46.762;23.598;2022-07-25T08:01:48;14.10;;;9.80;;
61358;SDS011;47228;46.762;23.598;2022-07-25T08:04:17;14.40;;;9.00;;
61358;SDS011;47228;46.762;23.598;2022-07-25T08:06:45;15.20;;;9.80;;
61358;SDS011;47228;46.762;23.598;2022-07-25T08:09:13;15.40;;;9.80;;
61358;SDS011;47228;46.762;23.598;2022-07-25T08:11:41;12.30;;;8.80;;
61358;SDS011;47228;46.762;23.598;2022-07-25T08:14:09;12.70;;;9.70;;
61358;SDS011;47228;46.762;23.598;2022-07-25T08:16:37;14.60;;;9.70;;
61358;SDS011;47228;46.762;23.598;2022-07-25T08:19:05;12.80;;;9.30;;
61358;SDS011;47228;46.762;23.598;2022-07-25T08:21:33;13.30;;;9.00;;
61358;SDS011;47228;46.762;23.598;2022-07-25T08:24:10;12.30;;;8.70;;
61358;SDS011;47228;46.762;23.598;2022-07-25T08:26:38;12.50;;;9.20;;
61358;SDS011;47228;46.762;23.598;2022-07-25T08:29:06;12.60;;;8.70;;
61358;SDS011;47228;46.762;23.598;2022-07-25T08:31:47;13.00;;;8.00;;
61358;SDS011;47228;46.762;23.598;2022-07-25T08:34:15;9.70;;;7.10;;
61358;SDS011;47228;46.762;23.598;2022-07-25T08:36:43;10.30;;;7.00;;
61358;SDS011;47228;46.762;23.598;2022-07-25T08:39:12;9.50;;;7.70;;
61358;SDS011;47228;46.762;23.598;2022-07-25T08:41:40;10.50;;;7.20;;
61358;SDS011;47228;46.762;23.598;2022-07-25T08:44:08;10.10;;;7.20;;
61358;SDS011;47228;46.762;23.598;2022-07-25T08:46:39;11.50;;;7.10;;
61358;SDS011;47228;46.762;23.598;2022-07-25T08:49:08;12.60;;;8.80;;
61358;SDS011;47228;46.762;23.598;2022-07-25T08:51:37;12.70;;;7.90;;
61358;SDS011;47228;46.762;23.598;2022-07-25T08:54:06;12.20;;;7.30;;
61358;SDS011;47228;46.762;23.598;2022-07-25T08:56:39;10.30;;;6.90;;
61358;SDS011;47228;46.762;23.598;2022-07-25T08:59:07;11.30;;;7.90;;
61358;SDS011;47228;46.762;23.598;2022-07-25T09:01:37;11.10;;;7.60;;
61358;SDS011;47228;46.762;23.598;2022-07-25T09:04:07;11.60;;;7.50;;
61358;SDS011;47228;46.762;23.598;2022-07-25T09:06:47;9.50;;;6.90;;
61358;SDS011;47228;46.762;23.598;2022-07-25T09:09:16;9.00;;;7.20;;
61358;SDS011;47228;46.762;23.598;2022-07-25T09:11:45;10.20;;;8.00;;
61358;SDS011;47228;46.762;23.598;2022-07-25T09:14:13;14.30;;;7.50;;
61358;SDS011;47228;46.762;23.598;2022-07-25T09:16:42;11.60;;;7.60;;
61358;SDS011;47228;46.762;23.598;2022-07-25T09:19:13;9.10;;;7.30;;
61358;SDS011;47228;46.762;23.598;2022-07-25T09:21:43;12.20;;;7.50;;
61358;SDS011;47228;46.762;23.598;2022-07-25T09:24:24;11.20;;;7.20;;
61358;SDS011;47228;46.762;23.598;2022-07-25T09:26:54;10.30;;;6.90;;
61358;SDS011;47228;46.762;23.598;2022-07-25T09:29:31;9.60;;;6.60;;
61358;SDS011;47228;46.762;23.598;2022-07-25T09:32:01;8.90;;;6.50;;
61358;SDS011;47228;46.762;23.598;2022-07-25T09:34:43;9.40;;;7.00;;
61358;SDS011;47228;46.762;23.598;2022-07-25T09:37:14;12.50;;;7.80;;
61358;SDS011;47228;46.762;23.598;2022-07-25T09:39:46;10.10;;;7.10;;
61358;SDS011;47228;46.762;23.598;2022-07-25T09:45:00;11.70;;;7.40;;
61358;SDS011;47228;46.762;23.598;2022-07-25T09:50:23;10.70;;;7.40;;
61358;SDS011;47228;46.762;23.598;2022-07-25T09:52:54;11.50;;;7.20;;
61358;SDS011;47228;46.762;23.598;2022-07-25T09:55:23;10.30;;;7.30;;
61358;SDS011;47228;46.762;23.598;2022-07-25T09:57:52;9.00;;;6.80;;
61358;SDS011;47228;46.762;23.598;2022-07-25T10:00:21;9.10;;;7.50;;
61358;SDS011;47228;46.762;23.598;2022-07-25T10:03:00;7.90;;;6.60;;
61358;SDS011;47228;46.762;23.598;2022-07-25T10:08:39;10.00;;;7.00;;
61358;SDS011;47228;46.762;23.598;2022-07-25T10:11:18;9.20;;;6.90;;
61358;SDS011;47228;46.762;23.598;2022-07-25T10:13:50;9.90;;;6.90;;
61358;SDS011;47228;46.762;23.598;2022-07-25T10:16:21;11.80;;;7.20;;
61358;SDS011;47228;46.762;23.598;2022-07-25T10:18:54;9.30;;;7.50;;
61358;SDS011;47228;46.762;23.598;2022-07-25T10:21:24;8.80;;;6.80;;
61358;SDS011;47228;46.762;23.598;2022-07-25T10:23:59;11.20;;;6.50;;
61358;SDS011;47228;46.762;23.598;2022-07-25T10:26:29;9.20;;;6.70;;
61358;SDS011;47228;46.762;23.598;2022-07-25T10:28:58;8.70;;;6.40;;
61358;SDS011;47228;46.762;23.598;2022-07-25T10:31:35;7.80;;;6.00;;
61358;SDS011;47228;46.762;23.598;2022-07-25T10:34:08;7.50;;;6.00;;
61358;SDS011;47228;46.762;23.598;2022-07-25T10:36:46;7.60;;;5.80;;
61358;SDS011;47228;46.762;23.598;2022-07-25T10:39:16;6.40;;;5.20;;
61358;SDS011;47228;46.762;23.598;2022-07-25T10:41:52;8.10;;;6.00;;
61358;SDS011;47228;46.762;23.598;2022-07-25T10:44:22;7.60;;;5.30;;
61358;SDS011;47228;46.762;23.598;2022-07-25T10:47:03;9.60;;;5.40;;
61358;SDS011;47228;46.762;23.598;2022-07-25T10:49:42;14.50;;;5.80;;
61358;SDS011;47228;46.762;23.598;2022-07-25T10:52:39;6.90;;;5.00;;
61358;SDS011;47228;46.762;23.598;2022-07-25T10:55:09;7.20;;;4.70;;
61358;SDS011;47228;46.762;23.598;2022-07-25T10:57:37;8.40;;;4.60;;
61358;SDS011;47228;46.762;23.598;2022-07-25T11:00:21;6.70;;;4.30;;
61358;SDS011;47228;46.762;23.598;2022-07-25T11:02:49;6.90;;;4.70;;
61358;SDS011;47228;46.762;23.598;2022-07-25T11:05:23;7.30;;;4.50;;
61358;SDS011;47228;46.762;23.598;2022-07-25T11:07:51;7.90;;;4.50;;
61358;SDS011;47228;46.762;23.598;2022-07-25T11:10:40;6.70;;;4.30;;
61358;SDS011;47228;46.762;23.598;2022-07-25T11:13:16;8.00;;;4.50;;
61358;SDS011;47228;46.762;23.598;2022-07-25T11:15:44;5.90;;;4.00;;
61358;SDS011;47228;46.762;23.598;2022-07-25T11:18:13;6.60;;;4.30;;
61358;SDS011;47228;46.762;23.598;2022-07-25T11:20:41;5.30;;;4.20;;
61358;SDS011;47228;46.762;23.598;2022-07-25T11:23:09;6.60;;;4.10;;
61358;SDS011;47228;46.762;23.598;2022-07-25T11:25:37;6.90;;;3.90;;
61358;SDS011;47228;46.762;23.598;2022-07-25T11:28:05;5.10;;;4.00;;
61358;SDS011;47228;46.762;23.598;2022-07-25T11:30:33;6.30;;;3.90;;
61358;SDS011;47228;46.762;23.598;2022-07-25T11:33:01;8.90;;;3.90;;
61358;SDS011;47228;46.762;23.598;2022-07-25T11:35:30;6.30;;;3.80;;
61358;SDS011;47228;46.762;23.598;2022-07-25T11:38:01;5.50;;;3.70;;
61358;SDS011;47228;46.762;23.598;2022-07-25T11:40:32;4.40;;;3.80;;
61358;SDS011;47228;46.762;23.598;2022-07-25T11:43:17;6.10;;;3.70;;
61358;SDS011;47228;46.762;23.598;2022-07-25T11:48:37;6.30;;;3.90;;
61358;SDS011;47228;46.762;23.598;2022-07-25T11:51:16;6.20;;;3.90;;
61358;SDS011;47228;46.762;23.598;2022-07-25T11:53:47;5.70;;;3.90;;
61358;SDS011;47228;46.762;23.598;2022-07-25T11:56:18;7.10;;;3.90;;
61358;SDS011;47228;46.762;23.598;2022-07-25T11:59:08;6.70;;;4.50;;
61358;SDS011;47228;46.762;23.598;2022-07-25T12:01:40;6.30;;;4.00;;
61358;SDS011;47228;46.762;23.598;2022-07-25T12:04:15;5.60;;;3.70;;
61358;SDS011;47228;46.762;23.598;2022-07-25T12:06:45;4.70;;;3.80;;
61358;SDS011;47228;46.762;23.598;2022-07-25T12:09:18;4.80;;;3.60;;
61358;SDS011;47228;46.762;23.598;2022-07-25T12:11:48;4.80;;;3.80;;
61358;SDS011;47228;46.762;23.598;2022-07-25T12:14:16;4.80;;;3.80;;
61358;SDS011;47228;46.762;23.598;2022-07-25T12:16:44;5.60;;;3.80;;
61358;SDS011;47228;46.762;23.598;2022-07-25T12:19:19;6.00;;;3.60;;
61358;SDS011;47228;46.762;23.598;2022-07-25T12:21:48;6.80;;;3.80;;
61358;SDS011;47228;46.762;23.598;2022-07-25T12:24:16;4.40;;;3.40;;
61358;SDS011;47228;46.762;23.598;2022-07-25T12:26:44;4.60;;;3.40;;
61358;SDS011;47228;46.762;23.598;2022-07-25T12:29:12;7.00;;;3.70;;
61358;SDS011;47228;46.762;23.598;2022-07-25T12:31:41;5.70;;;3.40;;
61358;SDS011;47228;46.762;23.598;2022-07-25T12:34:09;4.20;;;3.50;;
61358;SDS011;47228;46.762;23.598;2022-07-25T12:36:37;6.50;;;3.50;;
61358;SDS011;47228;46.762;23.598;2022-07-25T12:39:10;6.80;;;4.00;;
61358;SDS011;47228;46.762;23.598;2022-07-25T12:41:38;6.40;;;3.60;;
61358;SDS011;47228;46.762;23.598;2022-07-25T12:44:09;4.90;;;4.00;;
61358;SDS011;47228;46.762;23.598;2022-07-25T12:46:38;8.30;;;4.10;;
61358;SDS011;47228;46.762;23.598;2022-07-25T12:49:15;6.50;;;4.10;;
61358;SDS011;47228;46.762;23.598;2022-07-25T12:51:44;7.30;;;4.00;;
61358;SDS011;47228;46.762;23.598;2022-07-25T12:54:12;5.40;;;3.50;;
61358;SDS011;47228;46.762;23.598;2022-07-25T12:56:49;7.10;;;4.40;;
61358;SDS011;47228;46.762;23.598;2022-07-25T12:59:18;6.40;;;4.00;;
61358;SDS011;47228;46.762;23.598;2022-07-25T13:01:46;9.50;;;4.40;;
61358;SDS011;47228;46.762;23.598;2022-07-25T13:04:15;6.20;;;4.00;;
61358;SDS011;47228;46.762;23.598;2022-07-25T13:06:43;6.80;;;3.90;;
61358;SDS011;47228;46.762;23.598;2022-07-25T13:09:11;6.40;;;4.20;;
61358;SDS011;47228;46.762;23.598;2022-07-25T13:11:40;8.90;;;4.00;;
61358;SDS011;47228;46.762;23.598;2022-07-25T13:14:08;5.50;;;3.90;;
61358;SDS011;47228;46.762;23.598;2022-07-25T13:16:37;7.60;;;4.00;;
61358;SDS011;47228;46.762;23.598;2022-07-25T13:19:05;5.90;;;3.70;;
61358;SDS011;47228;46.762;23.598;2022-07-25T13:21:36;7.10;;;4.20;;
61358;SDS011;47228;46.762;23.598;2022-07-25T13:24:05;8.20;;;4.20;;
61358;SDS011;47228;46.762;23.598;2022-07-25T13:26:34;6.30;;;4.10;;
61358;SDS011;47228;46.762;23.598;2022-07-25T13:29:03;7.30;;;4.20;;
61358;SDS011;47228;46.762;23.598;2022-07-25T13:31:39;7.90;;;4.30;;
61358;SDS011;47228;46.762;23.598;2022-07-25T13:34:08;6.30;;;4.40;;
61358;SDS011;47228;46.762;23.598;2022-07-25T13:36:37;4.80;;;4.20;;
61358;SDS011;47228;46.762;23.598;2022-07-25T13:39:06;6.90;;;4.20;;
61358;SDS011;47228;46.762;23.598;2022-07-25T13:41:35;7.30;;;4.40;;
61358;SDS011;47228;46.762;23.598;2022-07-25T13:44:03;6.30;;;4.10;;
61358;SDS011;47228;46.762;23.598;2022-07-25T13:46:31;8.10;;;4.40;;
61358;SDS011;47228;46.762;23.598;2022-07-25T13:49:00;4.80;;;4.00;;
61358;SDS011;47228;46.762;23.598;2022-07-25T13:51:28;9.90;;;4.30;;
61358;SDS011;47228;46.762;23.598;2022-07-25T13:53:56;6.20;;;4.20;;
61358;SDS011;47228;46.762;23.598;2022-07-25T13:56:24;9.70;;;4.30;;
61358;SDS011;47228;46.762;23.598;2022-07-25T13:58:52;6.30;;;3.80;;
61358;SDS011;47228;46.762;23.598;2022-07-25T14:01:20;6.40;;;4.00;;
61358;SDS011;47228;46.762;23.598;2022-07-25T14:03:49;7.70;;;3.80;;
61358;SDS011;47228;46.762;23.598;2022-07-25T14:06:17;8.80;;;5.80;;
61358;SDS011;47228;46.762;23.598;2022-07-25T14:08:45;10.00;;;4.10;;
61358;SDS011;47228;46.762;23.598;2022-07-25T14:11:13;7.20;;;4.10;;
61358;SDS011;47228;46.762;23.598;2022-07-25T14:13:42;5.70;;;4.10;;
61358;SDS011;47228;46.762;23.598;2022-07-25T14:16:11;8.30;;;4.20;;
61358;SDS011;47228;46.762;23.598;2022-07-25T14:18:45;7.10;;;4.00;;
61358;SDS011;47228;46.762;23.598;2022-07-25T14:21:13;5.30;;;3.90;;
61358;SDS011;47228;46.762;23.598;2022-07-25T14:23:41;6.90;;;3.90;;
61358;SDS011;47228;46.762;23.598;2022-07-25T14:26:09;9.70;;;4.20;;
61358;SDS011;47228;46.762;23.598;2022-07-25T14:28:38;7.20;;;4.20;;
61358;SDS011;47228;46.762;23.598;2022-07-25T14:31:06;6.20;;;3.70;;
61358;SDS011;47228;46.762;23.598;2022-07-25T14:33:34;6.70;;;4.40;;
61358;SDS011;47228;46.762;23.598;2022-07-25T14:36:06;7.10;;;3.90;;
61358;SDS011;47228;46.762;23.598;2022-07-25T14:38:36;7.00;;;4.40;;
61358;SDS011;47228;46.762;23.598;2022-07-25T14:41:06;7.00;;;3.70;;
61358;SDS011;47228;46.762;23.598;2022-07-25T14:43:40;5.40;;;3.70;;